sensor_id;sensor_type;location;lat;lon;timestamp;pressure;altitude;pressure_sealevel;temperature;humidity
65376;BME280;51976;47.332;9.404;2023-12-20T00:00:55;92831.41;;;2.81;100.00
65376;BME280;51976;47.332;9.404;2023-12-20T00:03:20;92836.72;;;2.81;100.00
65376;BME280;51976;47.332;9.404;2023-12-20T00:05:47;92831.06;;;2.77;100.00
65376;BME280;51976;47.332;9.404;2023-12-20T00:08:12;92838.13;;;2.83;100.00
65376;BME280;51976;47.332;9.404;2023-12-20T00:10:38;92837.41;;;2.88;100.00
65376;BME280;51976;47.332;9.404;2023-12-20T00:13:03;92840.91;;;2.77;100.00
65376;BME280;51976;47.332;9.404;2023-12-20T00:15:28;92840.91;;;2.77;100.00
65376;BME280;51976;47.332;9.404;2023-12-20T00:17:54;92826.63;;;2.43;100.00
65376;BME280;51976;47.332;9.404;2023-12-20T00:20:19;92841.06;;;2.23;100.00
65376;BME280;51976;47.332;9.404;2023-12-20T00:22:44;92832.63;;;2.26;100.00
65376;BME280;51976;47.332;9.404;2023-12-20T00:25:10;92829.50;;;2.41;100.00
65376;BME280;51976;47.332;9.404;2023-12-20T00:27:35;92826.34;;;2.56;100.00
65376;BME280;51976;47.332;9.404;2023-12-20T00:30:01;92822.41;;;2.70;100.00
65376;BME280;51976;47.332;9.404;2023-12-20T00:32:26;92823.59;;;2.62;100.00
65376;BME280;51976;47.332;9.404;2023-12-20T00:34:51;92833.75;;;2.65;100.00
65376;BME280;51976;47.332;9.404;2023-12-20T00:37:17;92814.91;;;2.67;100.00
65376;BME280;51976;47.332;9.404;2023-12-20T00:39:42;92819.75;;;2.58;100.00
65376;BME280;51976;47.332;9.404;2023-12-20T00:42:07;92823.34;;;2.64;100.00
65376;BME280;51976;47.332;9.404;2023-12-20T00:44:33;92820.22;;;2.67;100.00
65376;BME280;51976;47.332;9.404;2023-12-20T00:46:58;92812.59;;;2.47;100.00
65376;BME280;51976;47.332;9.404;2023-12-20T00:49:24;92815.53;;;2.46;100.00
65376;BME280;51976;47.332;9.404;2023-12-20T00:51:49;92822.00;;;2.38;100.00
65376;BME280;51976;47.332;9.404;2023-12-20T00:54:16;92826.94;;;2.58;100.00
65376;BME280;51976;47.332;9.404;2023-12-20T00:56:41;92832.75;;;2.43;100.00
65376;BME280;51976;47.332;9.404;2023-12-20T00:59:06;92845.59;;;2.34;100.00
65376;BME280;51976;47.332;9.404;2023-12-20T01:01:32;92850.53;;;2.54;100.00
65376;BME280;51976;47.332;9.404;2023-12-20T01:03:58;92866.13;;;2.74;100.00
65376;BME280;51976;47.332;9.404;2023-12-20T01:06:23;92870.53;;;2.80;100.00
65376;BME280;51976;47.332;9.404;2023-12-20T01:08:49;92870.56;;;2.68;100.00
65376;BME280;51976;47.332;9.404;2023-12-20T01:11:14;92882.47;;;2.54;100.00
65376;BME280;51976;47.332;9.404;2023-12-20T01:13:39;92871.84;;;2.66;100.00
65376;BME280;51976;47.332;9.404;2023-12-20T01:16:05;92860.94;;;2.56;100.00
65376;BME280;51976;47.332;9.404;2023-12-20T01:18:31;92852.97;;;2.67;100.00
65376;BME280;51976;47.332;9.404;2023-12-20T01:20:56;92843.72;;;2.70;100.00
65376;BME280;51976;47.332;9.404;2023-12-20T01:23:21;92845.09;;;2.61;100.00
65376;BME280;51976;47.332;9.404;2023-12-20T01:25:48;92829.25;;;2.66;100.00
65376;BME280;51976;47.332;9.404;2023-12-20T01:28:13;92846.50;;;2.63;100.00
65376;BME280;51976;47.332;9.404;2023-12-20T01:30:39;92830.41;;;2.70;100.00
65376;BME280;51976;47.332;9.404;2023-12-20T01:33:04;92839.16;;;2.82;100.00
65376;BME280;51976;47.332;9.404;2023-12-20T01:35:29;92839.72;;;2.84;100.00
65376;BME280;51976;47.332;9.404;2023-12-20T01:37:55;92848.19;;;2.81;100.00
65376;BME280;51976;47.332;9.404;2023-12-20T01:40:23;92854.44;;;2.87;100.00
65376;BME280;51976;47.332;9.404;2023-12-20T01:42:58;92858.59;;;2.94;100.00
65376;BME280;51976;47.332;9.404;2023-12-20T01:45:24;92856.16;;;2.81;100.00
65376;BME280;51976;47.332;9.404;2023-12-20T01:47:50;92854.94;;;2.60;100.00
65376;BME280;51976;47.332;9.404;2023-12-20T01:50:15;92853.66;;;2.63;100.00
65376;BME280;51976;47.332;9.404;2023-12-20T01:52:42;92837.56;;;2.69;100.00
65376;BME280;51976;47.332;9.404;2023-12-20T01:55:08;92854.25;;;2.65;100.00
65376;BME280;51976;47.332;9.404;2023-12-20T01:57:39;92845.38;;;2.36;100.00
65376;BME280;51976;47.332;9.404;2023-12-20T02:00:08;92839.34;;;2.29;100.00
65376;BME280;51976;47.332;9.404;2023-12-20T02:02:37;92850.78;;;2.53;100.00
65376;BME280;51976;47.332;9.404;2023-12-20T02:05:05;92830.75;;;2.62;100.00
65376;BME280;51976;47.332;9.404;2023-12-20T02:07:30;92831.53;;;2.74;100.00
65376;BME280;51976;47.332;9.404;2023-12-20T02:09:56;92817.44;;;2.62;100.00
65376;BME280;51976;47.332;9.404;2023-12-20T02:12:22;92811.31;;;2.61;100.00
65376;BME280;51976;47.332;9.404;2023-12-20T02:14:47;92809.13;;;2.58;100.00
65376;BME280;51976;47.332;9.404;2023-12-20T02:17:13;92804.50;;;2.54;100.00
65376;BME280;51976;47.332;9.404;2023-12-20T02:19:38;92802.69;;;2.83;100.00
65376;BME280;51976;47.332;9.404;2023-12-20T02:22:08;92799.34;;;2.76;100.00
65376;BME280;51976;47.332;9.404;2023-12-20T02:24:33;92782.31;;;2.88;100.00
65376;BME280;51976;47.332;9.404;2023-12-20T02:26:59;92779.53;;;2.95;100.00
65376;BME280;51976;47.332;9.404;2023-12-20T02:29:24;92790.31;;;2.88;100.00
65376;BME280;51976;47.332;9.404;2023-12-20T02:31:50;92786.28;;;3.02;100.00
65376;BME280;51976;47.332;9.404;2023-12-20T02:34:16;92781.16;;;3.13;100.00
65376;BME280;51976;47.332;9.404;2023-12-20T02:36:41;92757.00;;;3.02;100.00
65376;BME280;51976;47.332;9.404;2023-12-20T02:39:06;92778.59;;;3.18;100.00
65376;BME280;51976;47.332;9.404;2023-12-20T02:41:32;92776.50;;;3.20;100.00
65376;BME280;51976;47.332;9.404;2023-12-20T02:43:57;92779.56;;;3.28;100.00
65376;BME280;51976;47.332;9.404;2023-12-20T02:46:23;92778.38;;;3.36;100.00
65376;BME280;51976;47.332;9.404;2023-12-20T02:48:48;92777.19;;;3.44;100.00
65376;BME280;51976;47.332;9.404;2023-12-20T02:51:13;92773.66;;;3.55;100.00
65376;BME280;51976;47.332;9.404;2023-12-20T02:53:39;92768.25;;;3.66;100.00
65376;BME280;51976;47.332;9.404;2023-12-20T02:56:04;92769.03;;;3.84;100.00
65376;BME280;51976;47.332;9.404;2023-12-20T02:58:30;92763.47;;;4.02;100.00
65376;BME280;51976;47.332;9.404;2023-12-20T03:00:55;92761.66;;;4.24;100.00
65376;BME280;51976;47.332;9.404;2023-12-20T03:03:20;92769.59;;;4.36;100.00
65376;BME280;51976;47.332;9.404;2023-12-20T03:05:46;92762.91;;;4.38;100.00
65376;BME280;51976;47.332;9.404;2023-12-20T03:08:11;92755.06;;;4.49;100.00
65376;BME280;51976;47.332;9.404;2023-12-20T03:10:37;92762.09;;;4.55;100.00
65376;BME280;51976;47.332;9.404;2023-12-20T03:13:02;92763.22;;;4.59;100.00
65376;BME280;51976;47.332;9.404;2023-12-20T03:15:28;92750.03;;;4.52;100.00
65376;BME280;51976;47.332;9.404;2023-12-20T03:17:53;92763.81;;;4.66;100.00
65376;BME280;51976;47.332;9.404;2023-12-20T03:20:18;92753.19;;;4.71;100.00
65376;BME280;51976;47.332;9.404;2023-12-20T03:22:44;92760.03;;;4.84;100.00
65376;BME280;51976;47.332;9.404;2023-12-20T03:25:09;92755.75;;;4.83;100.00
65376;BME280;51976;47.332;9.404;2023-12-20T03:27:37;92769.41;;;4.86;100.00
65376;BME280;51976;47.332;9.404;2023-12-20T03:30:04;92764.56;;;4.83;100.00
65376;BME280;51976;47.332;9.404;2023-12-20T03:32:29;92770.47;;;4.85;100.00
65376;BME280;51976;47.332;9.404;2023-12-20T03:34:55;92772.91;;;4.87;100.00
65376;BME280;51976;47.332;9.404;2023-12-20T03:37:21;92779.63;;;4.89;100.00
65376;BME280;51976;47.332;9.404;2023-12-20T03:39:47;92790.78;;;4.86;100.00
65376;BME280;51976;47.332;9.404;2023-12-20T03:42:12;92794.25;;;4.87;100.00
65376;BME280;51976;47.332;9.404;2023-12-20T03:44:41;92803.03;;;4.82;100.00
65376;BME280;51976;47.332;9.404;2023-12-20T03:47:06;92810.41;;;4.75;100.00
65376;BME280;51976;47.332;9.404;2023-12-20T03:49:32;92816.88;;;4.79;100.00
65376;BME280;51976;47.332;9.404;2023-12-20T03:51:57;92819.53;;;4.79;100.00
65376;BME280;51976;47.332;9.404;2023-12-20T03:54:22;92818.16;;;4.76;100.00
65376;BME280;51976;47.332;9.404;2023-12-20T03:56:48;92809.75;;;4.68;100.00
65376;BME280;51976;47.332;9.404;2023-12-20T03:59:13;92819.38;;;4.69;100.00
65376;BME280;51976;47.332;9.404;2023-12-20T04:01:43;92819.06;;;4.65;100.00
65376;BME280;51976;47.332;9.404;2023-12-20T04:04:09;92829.56;;;4.50;100.00
65376;BME280;51976;47.332;9.404;2023-12-20T04:06:35;92834.81;;;4.45;100.00
65376;BME280;51976;47.332;9.404;2023-12-20T04:09:00;92840.16;;;4.45;100.00
65376;BME280;51976;47.332;9.404;2023-12-20T04:11:26;92832.88;;;4.40;100.00
65376;BME280;51976;47.332;9.404;2023-12-20T04:13:51;92824.06;;;4.40;100.00
65376;BME280;51976;47.332;9.404;2023-12-20T04:16:16;92808.56;;;4.37;100.00
65376;BME280;51976;47.332;9.404;2023-12-20T04:18:42;92808.94;;;4.46;100.00
65376;BME280;51976;47.332;9.404;2023-12-20T04:21:07;92803.28;;;4.42;100.00
65376;BME280;51976;47.332;9.404;2023-12-20T04:23:33;92809.97;;;4.45;100.00
65376;BME280;51976;47.332;9.404;2023-12-20T04:25:58;92798.19;;;4.40;100.00
65376;BME280;51976;47.332;9.404;2023-12-20T04:28:23;92798.97;;;4.41;100.00
65376;BME280;51976;47.332;9.404;2023-12-20T04:30:49;92785.63;;;4.41;100.00
65376;BME280;51976;47.332;9.404;2023-12-20T04:33:14;92779.25;;;4.42;100.00
65376;BME280;51976;47.332;9.404;2023-12-20T04:35:40;92783.72;;;4.36;100.00
65376;BME280;51976;47.332;9.404;2023-12-20T04:38:06;92797.31;;;4.35;100.00
65376;BME280;51976;47.332;9.404;2023-12-20T04:40:32;92798.47;;;4.22;100.00
65376;BME280;51976;47.332;9.404;2023-12-20T04:42:57;92813.09;;;4.20;100.00
65376;BME280;51976;47.332;9.404;2023-12-20T04:45:22;92814.47;;;4.22;100.00
65376;BME280;51976;47.332;9.404;2023-12-20T04:47:50;92811.47;;;4.35;100.00
65376;BME280;51976;47.332;9.404;2023-12-20T04:50:15;92823.56;;;4.43;100.00
65376;BME280;51976;47.332;9.404;2023-12-20T04:52:41;92828.19;;;4.48;100.00
65376;BME280;51976;47.332;9.404;2023-12-20T04:55:07;92849.44;;;4.42;100.00
65376;BME280;51976;47.332;9.404;2023-12-20T04:57:34;92856.28;;;4.33;100.00
65376;BME280;51976;47.332;9.404;2023-12-20T04:59:59;92862.50;;;4.22;100.00
65376;BME280;51976;47.332;9.404;2023-12-20T05:02:25;92868.78;;;4.16;100.00
65376;BME280;51976;47.332;9.404;2023-12-20T05:04:50;92876.16;;;4.09;100.00
65376;BME280;51976;47.332;9.404;2023-12-20T05:07:15;92881.66;;;4.02;100.00
65376;BME280;51976;47.332;9.404;2023-12-20T05:09:41;92897.66;;;4.02;100.00
65376;BME280;51976;47.332;9.404;2023-12-20T05:12:06;92891.22;;;3.87;100.00
65376;BME280;51976;47.332;9.404;2023-12-20T05:14:32;92906.91;;;3.83;100.00
65376;BME280;51976;47.332;9.404;2023-12-20T05:16:57;92910.88;;;3.81;100.00
65376;BME280;51976;47.332;9.404;2023-12-20T05:19:23;92908.34;;;3.74;100.00
65376;BME280;51976;47.332;9.404;2023-12-20T05:21:49;92915.69;;;3.67;100.00
65376;BME280;51976;47.332;9.404;2023-12-20T05:24:14;92922.06;;;3.66;100.00
65376;BME280;51976;47.332;9.404;2023-12-20T05:26:40;92924.84;;;3.59;100.00
65376;BME280;51976;47.332;9.404;2023-12-20T05:29:05;92925.66;;;3.60;100.00
65376;BME280;51976;47.332;9.404;2023-12-20T05:31:31;92935.69;;;3.53;100.00
65376;BME280;51976;47.332;9.404;2023-12-20T05:33:56;92936.63;;;3.47;100.00
65376;BME280;51976;47.332;9.404;2023-12-20T05:36:22;92942.53;;;3.37;100.00
65376;BME280;51976;47.332;9.404;2023-12-20T05:38:47;92947.75;;;3.32;100.00
65376;BME280;51976;47.332;9.404;2023-12-20T05:41:13;92953.81;;;3.27;100.00
65376;BME280;51976;47.332;9.404;2023-12-20T05:43:38;92952.44;;;3.25;100.00
65376;BME280;51976;47.332;9.404;2023-12-20T05:46:04;92956.16;;;3.12;100.00
65376;BME280;51976;47.332;9.404;2023-12-20T05:48:29;92960.09;;;3.10;100.00
65376;BME280;51976;47.332;9.404;2023-12-20T05:50:55;92956.16;;;3.12;100.00
65376;BME280;51976;47.332;9.404;2023-12-20T05:53:20;92956.25;;;3.17;100.00
65376;BME280;51976;47.332;9.404;2023-12-20T05:55:45;92953.03;;;3.15;100.00
65376;BME280;51976;47.332;9.404;2023-12-20T05:58:11;92959.03;;;3.11;100.00
65376;BME280;51976;47.332;9.404;2023-12-20T06:00:36;92964.38;;;3.11;100.00
65376;BME280;51976;47.332;9.404;2023-12-20T06:03:02;92962.97;;;3.08;100.00
65376;BME280;51976;47.332;9.404;2023-12-20T06:05:27;92959.75;;;3.06;100.00
65376;BME280;51976;47.332;9.404;2023-12-20T06:07:53;92956.50;;;3.16;100.00
65376;BME280;51976;47.332;9.404;2023-12-20T06:10:19;92955.34;;;3.12;100.00
65376;BME280;51976;47.332;9.404;2023-12-20T06:12:45;92953.53;;;3.00;100.00
65376;BME280;51976;47.332;9.404;2023-12-20T06:15:12;92958.50;;;2.97;100.00
65376;BME280;51976;47.332;9.404;2023-12-20T06:17:37;92971.09;;;3.01;100.00
65376;BME280;51976;47.332;9.404;2023-12-20T06:20:03;92963.25;;;2.95;100.00
65376;BME280;51976;47.332;9.404;2023-12-20T06:22:33;92963.72;;;2.92;100.00
65376;BME280;51976;47.332;9.404;2023-12-20T06:24:58;92968.53;;;3.06;100.00
65376;BME280;51976;47.332;9.404;2023-12-20T06:27:24;92971.09;;;3.01;100.00
65376;BME280;51976;47.332;9.404;2023-12-20T06:29:49;92967.72;;;3.06;100.00
65376;BME280;51976;47.332;9.404;2023-12-20T06:32:14;92970.84;;;3.15;100.00
65376;BME280;51976;47.332;9.404;2023-12-20T06:34:40;92962.97;;;3.20;100.00
65376;BME280;51976;47.332;9.404;2023-12-20T06:37:05;92961.34;;;3.19;100.00
65376;BME280;51976;47.332;9.404;2023-12-20T06:39:30;92972.25;;;3.05;100.00
65376;BME280;51976;47.332;9.404;2023-12-20T06:41:56;92962.88;;;3.15;100.00
65376;BME280;51976;47.332;9.404;2023-12-20T06:44:22;92969.09;;;3.32;100.00
65376;BME280;51976;47.332;9.404;2023-12-20T06:46:47;92963.97;;;3.42;100.00
65376;BME280;51976;47.332;9.404;2023-12-20T06:49:12;92955.03;;;3.48;100.00
65376;BME280;51976;47.332;9.404;2023-12-20T06:51:38;92959.81;;;3.34;100.00
65376;BME280;51976;47.332;9.404;2023-12-20T06:54:03;92957.94;;;3.47;100.00
65376;BME280;51976;47.332;9.404;2023-12-20T06:56:29;92966.97;;;3.46;100.00
65376;BME280;51976;47.332;9.404;2023-12-20T06:58:54;92975.09;;;3.39;100.00
65376;BME280;51976;47.332;9.404;2023-12-20T07:01:20;92978.81;;;3.38;100.00
65376;BME280;51976;47.332;9.404;2023-12-20T07:03:45;92981.34;;;3.45;100.00
65376;BME280;51976;47.332;9.404;2023-12-20T07:06:10;92994.69;;;3.33;100.00
65376;BME280;51976;47.332;9.404;2023-12-20T07:08:36;92999.53;;;3.36;100.00
65376;BME280;51976;47.332;9.404;2023-12-20T07:11:02;92994.09;;;3.43;100.00
65376;BME280;51976;47.332;9.404;2023-12-20T07:13:27;92982.84;;;3.52;100.00
65376;BME280;51976;47.332;9.404;2023-12-20T07:15:53;92989.28;;;3.56;100.00
65376;BME280;51976;47.332;9.404;2023-12-20T07:18:18;92989.97;;;3.63;100.00
65376;BME280;51976;47.332;9.404;2023-12-20T07:20:44;92993.69;;;3.62;100.00
65376;BME280;51976;47.332;9.404;2023-12-20T07:23:09;93004.25;;;3.57;100.00
65376;BME280;51976;47.332;9.404;2023-12-20T07:25:34;93008.91;;;3.50;100.00
65376;BME280;51976;47.332;9.404;2023-12-20T07:28:00;93002.06;;;3.54;100.00
65376;BME280;51976;47.332;9.404;2023-12-20T07:30:25;92986.41;;;3.58;100.00
65376;BME280;51976;47.332;9.404;2023-12-20T07:32:51;93001.78;;;3.67;100.00
65376;BME280;51976;47.332;9.404;2023-12-20T07:35:18;92986.50;;;3.63;100.00
65376;BME280;51976;47.332;9.404;2023-12-20T07:37:45;92991.06;;;3.51;100.00
65376;BME280;51976;47.332;9.404;2023-12-20T07:40:11;92989.28;;;3.56;100.00
65376;BME280;51976;47.332;9.404;2023-12-20T07:42:37;92981.31;;;3.56;100.00
65376;BME280;51976;47.332;9.404;2023-12-20T07:45:03;92992.06;;;3.61;100.00
65376;BME280;51976;47.332;9.404;2023-12-20T07:47:29;92993.50;;;3.52;100.00
65376;BME280;51976;47.332;9.404;2023-12-20T07:49:54;92998.50;;;3.49;100.00
65376;BME280;51976;47.332;9.404;2023-12-20T07:52:19;93002.06;;;3.54;100.00
65376;BME280;51976;47.332;9.404;2023-12-20T07:57:31;93005.22;;;3.51;100.00
65376;BME280;51976;47.332;9.404;2023-12-20T07:59:56;93001.56;;;3.69;100.00
65376;BME280;51976;47.332;9.404;2023-12-20T08:02:21;92995.16;;;3.82;100.00
65376;BME280;51976;47.332;9.404;2023-12-20T08:04:47;92996.38;;;3.91;100.00
65376;BME280;51976;47.332;9.404;2023-12-20T08:07:12;92974.91;;;3.69;100.00
65376;BME280;51976;47.332;9.404;2023-12-20T08:09:38;92998.53;;;3.77;100.00
65376;BME280;51976;47.332;9.404;2023-12-20T08:12:03;93009.78;;;3.79;100.00
65376;BME280;51976;47.332;9.404;2023-12-20T08:14:29;93013.03;;;3.69;100.00
65376;BME280;51976;47.332;9.404;2023-12-20T08:16:54;93022.53;;;3.77;100.00
65376;BME280;51976;47.332;9.404;2023-12-20T08:19:20;93027.16;;;3.82;100.00
65376;BME280;51976;47.332;9.404;2023-12-20T08:21:45;93022.28;;;3.79;100.00
65376;BME280;51976;47.332;9.404;2023-12-20T08:24:11;93023.69;;;3.81;100.00
65376;BME280;51976;47.332;9.404;2023-12-20T08:26:37;93026.28;;;3.93;100.00
65376;BME280;51976;47.332;9.404;2023-12-20T08:29:02;93026.50;;;4.03;100.00
65376;BME280;51976;47.332;9.404;2023-12-20T08:31:28;93019.31;;;4.03;100.00
65376;BME280;51976;47.332;9.404;2023-12-20T08:33:53;93016.16;;;4.06;100.00
65376;BME280;51976;47.332;9.404;2023-12-20T08:36:20;93017.81;;;3.96;100.00
65376;BME280;51976;47.332;9.404;2023-12-20T08:38:48;93023.13;;;4.07;100.00
65376;BME280;51976;47.332;9.404;2023-12-20T08:41:13;93009.94;;;3.89;100.00
65376;BME280;51976;47.332;9.404;2023-12-20T08:43:39;93005.25;;;4.08;100.00
65376;BME280;51976;47.332;9.404;2023-12-20T08:46:05;93010.66;;;4.13;100.00
65376;BME280;51976;47.332;9.404;2023-12-20T08:48:31;93014.53;;;4.05;100.00
65376;BME280;51976;47.332;9.404;2023-12-20T08:50:56;93020.47;;;4.07;100.00
65376;BME280;51976;47.332;9.404;2023-12-20T08:53:22;93022.78;;;4.04;100.00
65376;BME280;51976;47.332;9.404;2023-12-20T08:55:47;93011.00;;;4.17;100.00
65376;BME280;51976;47.332;9.404;2023-12-20T08:58:13;93007.75;;;4.15;100.00
65376;BME280;51976;47.332;9.404;2023-12-20T09:00:39;93010.53;;;4.20;100.00
65376;BME280;51976;47.332;9.404;2023-12-20T09:03:05;93019.72;;;4.12;100.00
65376;BME280;51976;47.332;9.404;2023-12-20T09:05:30;93007.28;;;4.18;100.00
65376;BME280;51976;47.332;9.404;2023-12-20T09:07:56;93006.25;;;4.19;100.00
65376;BME280;51976;47.332;9.404;2023-12-20T09:10:23;93009.59;;;4.26;100.00
65376;BME280;51976;47.332;9.404;2023-12-20T09:12:50;93008.28;;;4.28;100.00
65376;BME280;51976;47.332;9.404;2023-12-20T09:15:16;93002.63;;;4.25;100.00
65376;BME280;51976;47.332;9.404;2023-12-20T09:17:42;93007.38;;;4.23;100.00
65376;BME280;51976;47.332;9.404;2023-12-20T09:20:09;93008.72;;;4.37;100.00
65376;BME280;51976;47.332;9.404;2023-12-20T09:22:35;93008.22;;;4.40;100.00
65376;BME280;51976;47.332;9.404;2023-12-20T09:25:00;92993.09;;;4.46;100.00
65376;BME280;51976;47.332;9.404;2023-12-20T09:27:27;92987.19;;;4.43;100.00
65376;BME280;51976;47.332;9.404;2023-12-20T09:29:54;92983.72;;;4.43;100.00
65376;BME280;51976;47.332;9.404;2023-12-20T09:32:20;92992.22;;;4.57;100.00
65376;BME280;51976;47.332;9.404;2023-12-20T09:34:47;92985.69;;;4.64;100.00
65376;BME280;51976;47.332;9.404;2023-12-20T09:37:13;92988.59;;;4.63;100.00
65376;BME280;51976;47.332;9.404;2023-12-20T09:39:38;92996.19;;;4.71;100.00
65376;BME280;51976;47.332;9.404;2023-12-20T09:42:05;92998.53;;;4.67;100.00
65376;BME280;51976;47.332;9.404;2023-12-20T09:44:32;92997.00;;;4.71;100.00
65376;BME280;51976;47.332;9.404;2023-12-20T09:46:58;92984.88;;;4.64;100.00
65376;BME280;51976;47.332;9.404;2023-12-20T09:49:27;92986.75;;;4.63;100.00
65376;BME280;51976;47.332;9.404;2023-12-20T09:51:54;92992.31;;;4.79;100.00
65376;BME280;51976;47.332;9.404;2023-12-20T09:54:20;92980.75;;;4.73;100.00
65376;BME280;51976;47.332;9.404;2023-12-20T09:56:47;92987.63;;;4.86;100.00
65376;BME280;51976;47.332;9.404;2023-12-20T09:59:13;92990.38;;;4.74;100.00
65376;BME280;51976;47.332;9.404;2023-12-20T10:01:41;92983.50;;;4.78;100.00
65376;BME280;51976;47.332;9.404;2023-12-20T10:04:08;92977.03;;;4.74;100.00
65376;BME280;51976;47.332;9.404;2023-12-20T10:06:36;92971.44;;;4.59;100.00
65376;BME280;51976;47.332;9.404;2023-12-20T10:09:03;92980.97;;;4.71;100.00
65376;BME280;51976;47.332;9.404;2023-12-20T10:11:31;92993.53;;;4.71;100.00
65376;BME280;51976;47.332;9.404;2023-12-20T10:14:00;92985.50;;;4.71;100.00
65376;BME280;51976;47.332;9.404;2023-12-20T10:16:27;92991.19;;;4.74;100.00
65376;BME280;51976;47.332;9.404;2023-12-20T10:18:56;92982.84;;;4.71;100.00
65376;BME280;51976;47.332;9.404;2023-12-20T10:21:25;92984.38;;;4.67;100.00
65376;BME280;51976;47.332;9.404;2023-12-20T10:23:57;92976.94;;;4.69;100.00
65376;BME280;51976;47.332;9.404;2023-12-20T10:26:25;92985.84;;;4.74;100.00
65376;BME280;51976;47.332;9.404;2023-12-20T10:28:53;92984.06;;;4.80;100.00
65376;BME280;51976;47.332;9.404;2023-12-20T10:31:32;92986.88;;;4.73;100.00
65376;BME280;51976;47.332;9.404;2023-12-20T10:33:59;92974.44;;;4.62;100.00
65376;BME280;51976;47.332;9.404;2023-12-20T10:36:29;92974.03;;;4.54;100.00
65376;BME280;51976;47.332;9.404;2023-12-20T10:38:56;92965.94;;;4.49;100.00
65376;BME280;51976;47.332;9.404;2023-12-20T10:41:28;92974.03;;;4.54;100.00
65376;BME280;51976;47.332;9.404;2023-12-20T10:44:00;92965.94;;;4.65;100.00
65376;BME280;51976;47.332;9.404;2023-12-20T10:46:27;92950.09;;;4.59;100.00
65376;BME280;51976;47.332;9.404;2023-12-20T10:48:54;92961.91;;;4.63;100.00
65376;BME280;51976;47.332;9.404;2023-12-20T10:51:20;92937.47;;;4.54;100.00
65376;BME280;51976;47.332;9.404;2023-12-20T10:53:47;92942.41;;;4.62;100.00
65376;BME280;51976;47.332;9.404;2023-12-20T10:56:16;92939.78;;;4.67;100.00
65376;BME280;51976;47.332;9.404;2023-12-20T10:58:43;92934.16;;;4.64;100.00
65376;BME280;51976;47.332;9.404;2023-12-20T11:01:12;92934.69;;;4.66;100.00
65376;BME280;51976;47.332;9.404;2023-12-20T11:03:38;92928.88;;;4.69;100.00
65376;BME280;51976;47.332;9.404;2023-12-20T11:06:15;92927.41;;;4.78;100.00
65376;BME280;51976;47.332;9.404;2023-12-20T11:09:00;92930.31;;;4.76;100.00
65376;BME280;51976;47.332;9.404;2023-12-20T11:12:09;92929.53;;;4.76;100.00
65376;BME280;51976;47.332;9.404;2023-12-20T11:14:47;92922.88;;;4.79;100.00
65376;BME280;51976;47.332;9.404;2023-12-20T11:17:13;92920.78;;;4.81;100.00
65376;BME280;51976;47.332;9.404;2023-12-20T11:20:04;92923.41;;;4.97;100.00
65376;BME280;51976;47.332;9.404;2023-12-20T11:22:31;92923.47;;;5.02;100.00
65376;BME280;51976;47.332;9.404;2023-12-20T11:25:08;92918.06;;;4.97;100.00
65376;BME280;51976;47.332;9.404;2023-12-20T11:27:34;92929.25;;;4.94;100.00
65376;BME280;51976;47.332;9.404;2023-12-20T11:30:03;92926.28;;;4.91;100.00
65376;BME280;51976;47.332;9.404;2023-12-20T11:32:34;92926.06;;;4.97;100.00
65376;BME280;51976;47.332;9.404;2023-12-20T11:35:01;92925.94;;;4.87;100.00
65376;BME280;51976;47.332;9.404;2023-12-20T11:37:41;92928.69;;;4.92;100.00
65376;BME280;51976;47.332;9.404;2023-12-20T11:40:14;92926.88;;;4.98;100.00
65376;BME280;51976;47.332;9.404;2023-12-20T11:42:40;92933.78;;;4.94;100.00
65376;BME280;51976;47.332;9.404;2023-12-20T11:45:25;92938.88;;;4.95;100.00
65376;BME280;51976;47.332;9.404;2023-12-20T11:47:51;92930.69;;;5.02;100.00
65376;BME280;51976;47.332;9.404;2023-12-20T11:50:19;92931.84;;;4.89;100.00
65376;BME280;51976;47.332;9.404;2023-12-20T11:52:45;92929.19;;;4.89;100.00
65376;BME280;51976;47.332;9.404;2023-12-20T11:55:10;92923.44;;;4.81;100.00
65376;BME280;51976;47.332;9.404;2023-12-20T11:57:36;92924.94;;;4.93;100.00
65376;BME280;51976;47.332;9.404;2023-12-20T12:00:03;92927.69;;;4.98;100.00
65376;BME280;51976;47.332;9.404;2023-12-20T12:02:29;92918.06;;;4.97;100.00
65376;BME280;51976;47.332;9.404;2023-12-20T12:04:55;92927.03;;;5.08;100.00
65376;BME280;51976;47.332;9.404;2023-12-20T12:07:21;92917.66;;;5.05;100.00
65376;BME280;51976;47.332;9.404;2023-12-20T12:09:47;92916.84;;;5.05;100.00
65376;BME280;51976;47.332;9.404;2023-12-20T12:12:12;92905.16;;;5.11;100.00
65376;BME280;51976;47.332;9.404;2023-12-20T12:14:38;92905.00;;;5.18;100.00
65376;BME280;51976;47.332;9.404;2023-12-20T12:17:10;92906.63;;;5.19;100.00
65376;BME280;51976;47.332;9.404;2023-12-20T12:19:35;92909.00;;;5.20;100.00
65376;BME280;51976;47.332;9.404;2023-12-20T12:22:06;92913.56;;;5.20;100.00
65376;BME280;51976;47.332;9.404;2023-12-20T12:24:38;92910.63;;;5.21;100.00
65376;BME280;51976;47.332;9.404;2023-12-20T12:27:06;92908.25;;;5.20;100.00
65376;BME280;51976;47.332;9.404;2023-12-20T12:29:31;92911.97;;;5.19;100.00
65376;BME280;51976;47.332;9.404;2023-12-20T12:31:57;92911.81;;;5.08;100.00
65376;BME280;51976;47.332;9.404;2023-12-20T12:34:23;92910.69;;;5.04;100.00
65376;BME280;51976;47.332;9.404;2023-12-20T12:36:49;92903.16;;;5.01;100.00
65376;BME280;51976;47.332;9.404;2023-12-20T12:39:15;92906.31;;;4.98;100.00
65376;BME280;51976;47.332;9.404;2023-12-20T12:41:42;92906.31;;;4.98;100.00
65376;BME280;51976;47.332;9.404;2023-12-20T12:44:08;92907.66;;;4.79;100.00
65376;BME280;51976;47.332;9.404;2023-12-20T12:46:34;92900.22;;;4.81;100.00
65376;BME280;51976;47.332;9.404;2023-12-20T12:49:00;92912.53;;;4.82;100.00
65376;BME280;51976;47.332;9.404;2023-12-20T12:51:25;92907.59;;;4.74;100.00
65376;BME280;51976;47.332;9.404;2023-12-20T12:53:50;92915.94;;;4.61;100.00
65376;BME280;51976;47.332;9.404;2023-12-20T12:56:16;92916.91;;;4.38;100.00
65376;BME280;51976;47.332;9.404;2023-12-20T12:58:43;92916.50;;;4.29;100.00